sensor_id;sensor_type;location;lat;lon;timestamp;P1;durP1;ratioP1;P2;durP2;ratioP2
8610;SDS011;4343;53.648;10.098;2023-09-08T00:01:57;5.18;;;4.88;;
8610;SDS011;4343;53.648;10.098;2023-09-08T00:04:22;5.28;;;4.63;;
8610;SDS011;4343;53.648;10.098;2023-09-08T00:06:48;5.10;;;4.80;;
8610;SDS011;4343;53.648;10.098;2023-09-08T00:09:14;4.97;;;4.68;;
8610;SDS011;4343;53.648;10.098;2023-09-08T00:11:39;4.55;;;4.35;;
8610;SDS011;4343;53.648;10.098;2023-09-08T00:14:05;5.03;;;4.72;;
8610;SDS011;4343;53.648;10.098;2023-09-08T00:16:31;4.95;;;4.60;;
8610;SDS011;4343;53.648;10.098;2023-09-08T00:18:57;4.78;;;4.53;;
8610;SDS011;4343;53.648;10.098;2023-09-08T00:21:26;5.28;;;4.90;;
8610;SDS011;4343;53.648;10.098;2023-09-08T00:23:52;4.55;;;4.35;;
8610;SDS011;4343;53.648;10.098;2023-09-08T00:26:18;4.85;;;4.65;;
8610;SDS011;4343;53.648;10.098;2023-09-08T00:28:43;6.80;;;4.75;;
8610;SDS011;4343;53.648;10.098;2023-09-08T00:31:09;4.90;;;4.50;;
8610;SDS011;4343;53.648;10.098;2023-09-08T00:33:34;5.00;;;4.68;;
8610;SDS011;4343;53.648;10.098;2023-09-08T00:36:00;4.72;;;4.35;;
8610;SDS011;4343;53.648;10.098;2023-09-08T00:38:26;4.97;;;4.68;;
8610;SDS011;4343;53.648;10.098;2023-09-08T00:40:51;5.55;;;5.15;;
8610;SDS011;4343;53.648;10.098;2023-09-08T00:43:17;4.70;;;4.50;;
8610;SDS011;4343;53.648;10.098;2023-09-08T00:45:43;5.63;;;5.22;;
8610;SDS011;4343;53.648;10.098;2023-09-08T00:48:10;5.00;;;4.70;;
8610;SDS011;4343;53.648;10.098;2023-09-08T00:50:36;5.40;;;4.90;;
8610;SDS011;4343;53.648;10.098;2023-09-08T00:53:05;4.95;;;4.57;;
8610;SDS011;4343;53.648;10.098;2023-09-08T00:55:32;4.60;;;4.40;;
8610;SDS011;4343;53.648;10.098;2023-09-08T00:57:59;4.63;;;4.43;;
8610;SDS011;4343;53.648;10.098;2023-09-08T01:00:25;4.50;;;4.30;;
8610;SDS011;4343;53.648;10.098;2023-09-08T01:02:51;4.85;;;4.65;;
8610;SDS011;4343;53.648;10.098;2023-09-08T01:05:17;5.00;;;4.60;;
8610;SDS011;4343;53.648;10.098;2023-09-08T01:07:43;5.30;;;5.00;;
8610;SDS011;4343;53.648;10.098;2023-09-08T01:10:09;4.90;;;4.60;;
8610;SDS011;4343;53.648;10.098;2023-09-08T01:12:35;5.05;;;4.70;;
8610;SDS011;4343;53.648;10.098;2023-09-08T01:15:01;4.88;;;4.60;;
8610;SDS011;4343;53.648;10.098;2023-09-08T01:17:27;5.00;;;4.80;;
8610;SDS011;4343;53.648;10.098;2023-09-08T01:19:54;4.72;;;4.43;;
8610;SDS011;4343;53.648;10.098;2023-09-08T01:22:37;4.80;;;4.47;;
8610;SDS011;4343;53.648;10.098;2023-09-08T01:25:20;5.63;;;5.13;;
8610;SDS011;4343;53.648;10.098;2023-09-08T01:27:48;5.10;;;4.70;;
8610;SDS011;4343;53.648;10.098;2023-09-08T01:30:18;4.90;;;4.60;;
8610;SDS011;4343;53.648;10.098;2023-09-08T01:32:44;5.30;;;5.00;;
8610;SDS011;4343;53.648;10.098;2023-09-08T01:35:10;5.18;;;4.88;;
8610;SDS011;4343;53.648;10.098;2023-09-08T01:37:39;5.10;;;4.80;;
8610;SDS011;4343;53.648;10.098;2023-09-08T01:40:06;4.90;;;4.55;;
8610;SDS011;4343;53.648;10.098;2023-09-08T01:42:31;5.72;;;5.32;;
8610;SDS011;4343;53.648;10.098;2023-09-08T01:44:57;5.40;;;5.05;;
8610;SDS011;4343;53.648;10.098;2023-09-08T01:47:23;4.78;;;4.47;;
8610;SDS011;4343;53.648;10.098;2023-09-08T01:49:48;5.70;;;5.20;;
8610;SDS011;4343;53.648;10.098;2023-09-08T01:52:14;5.35;;;4.82;;
8610;SDS011;4343;53.648;10.098;2023-09-08T01:54:39;4.75;;;4.50;;
8610;SDS011;4343;53.648;10.098;2023-09-08T01:57:05;5.20;;;4.85;;
8610;SDS011;4343;53.648;10.098;2023-09-08T01:59:30;5.20;;;4.90;;
8610;SDS011;4343;53.648;10.098;2023-09-08T02:01:56;4.57;;;4.38;;
8610;SDS011;4343;53.648;10.098;2023-09-08T02:04:21;5.35;;;5.05;;
8610;SDS011;4343;53.648;10.098;2023-09-08T02:06:47;5.40;;;5.03;;
8610;SDS011;4343;53.648;10.098;2023-09-08T02:09:14;4.72;;;4.43;;
8610;SDS011;4343;53.648;10.098;2023-09-08T02:11:39;5.32;;;5.03;;
8610;SDS011;4343;53.648;10.098;2023-09-08T02:14:05;4.82;;;4.63;;
8610;SDS011;4343;53.648;10.098;2023-09-08T02:16:30;5.20;;;4.80;;
8610;SDS011;4343;53.648;10.098;2023-09-08T02:18:56;5.90;;;5.40;;
8610;SDS011;4343;53.648;10.098;2023-09-08T02:21:21;5.07;;;4.75;;
8610;SDS011;4343;53.648;10.098;2023-09-08T02:23:47;5.00;;;4.65;;
8610;SDS011;4343;53.648;10.098;2023-09-08T02:26:13;5.75;;;5.43;;
8610;SDS011;4343;53.648;10.098;2023-09-08T02:28:38;5.35;;;4.90;;
8610;SDS011;4343;53.648;10.098;2023-09-08T02:31:03;5.78;;;5.38;;
8610;SDS011;4343;53.648;10.098;2023-09-08T02:33:29;5.55;;;5.20;;
8610;SDS011;4343;53.648;10.098;2023-09-08T02:35:55;5.22;;;4.93;;
8610;SDS011;4343;53.648;10.098;2023-09-08T02:38:20;5.28;;;4.88;;
8610;SDS011;4343;53.648;10.098;2023-09-08T02:40:45;5.30;;;4.80;;
8610;SDS011;4343;53.648;10.098;2023-09-08T02:43:11;5.78;;;5.35;;
8610;SDS011;4343;53.648;10.098;2023-09-08T02:45:36;5.38;;;4.85;;
8610;SDS011;4343;53.648;10.098;2023-09-08T02:48:02;5.60;;;5.20;;
8610;SDS011;4343;53.648;10.098;2023-09-08T02:50:27;5.13;;;4.82;;
8610;SDS011;4343;53.648;10.098;2023-09-08T02:52:53;5.70;;;5.32;;
8610;SDS011;4343;53.648;10.098;2023-09-08T02:55:18;5.78;;;5.38;;
8610;SDS011;4343;53.648;10.098;2023-09-08T02:57:44;5.63;;;5.07;;
8610;SDS011;4343;53.648;10.098;2023-09-08T03:00:09;5.43;;;5.05;;
8610;SDS011;4343;53.648;10.098;2023-09-08T03:02:35;6.07;;;5.55;;
8610;SDS011;4343;53.648;10.098;2023-09-08T03:05:01;5.63;;;5.32;;
8610;SDS011;4343;53.648;10.098;2023-09-08T03:07:27;5.28;;;4.97;;
8610;SDS011;4343;53.648;10.098;2023-09-08T03:09:53;5.65;;;5.25;;
8610;SDS011;4343;53.648;10.098;2023-09-08T03:12:18;5.80;;;5.28;;
8610;SDS011;4343;53.648;10.098;2023-09-08T03:14:44;5.60;;;5.20;;
8610;SDS011;4343;53.648;10.098;2023-09-08T03:17:10;5.57;;;5.28;;
8610;SDS011;4343;53.648;10.098;2023-09-08T03:19:35;5.55;;;5.18;;
8610;SDS011;4343;53.648;10.098;2023-09-08T03:22:01;5.60;;;5.20;;
8610;SDS011;4343;53.648;10.098;2023-09-08T03:24:27;5.85;;;5.45;;
8610;SDS011;4343;53.648;10.098;2023-09-08T03:26:52;5.30;;;5.00;;
8610;SDS011;4343;53.648;10.098;2023-09-08T03:29:18;6.35;;;5.75;;
8610;SDS011;4343;53.648;10.098;2023-09-08T03:31:43;5.72;;;5.28;;
8610;SDS011;4343;53.648;10.098;2023-09-08T03:34:09;5.82;;;5.43;;
8610;SDS011;4343;53.648;10.098;2023-09-08T03:36:34;6.15;;;5.65;;
8610;SDS011;4343;53.648;10.098;2023-09-08T03:39:03;5.60;;;5.20;;
8610;SDS011;4343;53.648;10.098;2023-09-08T03:41:28;5.53;;;5.22;;
8610;SDS011;4343;53.648;10.098;2023-09-08T03:43:54;5.30;;;5.00;;
8610;SDS011;4343;53.648;10.098;2023-09-08T03:46:20;5.90;;;5.50;;
8610;SDS011;4343;53.648;10.098;2023-09-08T03:48:45;5.30;;;5.00;;
8610;SDS011;4343;53.648;10.098;2023-09-08T03:51:11;5.35;;;4.95;;
8610;SDS011;4343;53.648;10.098;2023-09-08T03:53:36;5.68;;;5.32;;
8610;SDS011;4343;53.648;10.098;2023-09-08T03:56:02;5.85;;;5.50;;
8610;SDS011;4343;53.648;10.098;2023-09-08T03:58:28;6.30;;;5.90;;
8610;SDS011;4343;53.648;10.098;2023-09-08T04:00:54;5.72;;;5.30;;
8610;SDS011;4343;53.648;10.098;2023-09-08T04:03:19;5.97;;;5.38;;
8610;SDS011;4343;53.648;10.098;2023-09-08T04:05:45;5.72;;;5.32;;
8610;SDS011;4343;53.648;10.098;2023-09-08T04:08:10;6.07;;;5.68;;
8610;SDS011;4343;53.648;10.098;2023-09-08T04:10:36;5.35;;;5.03;;
8610;SDS011;4343;53.648;10.098;2023-09-08T04:13:02;5.82;;;5.35;;
8610;SDS011;4343;53.648;10.098;2023-09-08T04:15:28;5.68;;;5.22;;
8610;SDS011;4343;53.648;10.098;2023-09-08T04:17:53;6.47;;;5.97;;
8610;SDS011;4343;53.648;10.098;2023-09-08T04:20:19;5.65;;;5.35;;
8610;SDS011;4343;53.648;10.098;2023-09-08T04:22:44;5.85;;;5.45;;
8610;SDS011;4343;53.648;10.098;2023-09-08T04:25:10;5.80;;;5.32;;
8610;SDS011;4343;53.648;10.098;2023-09-08T04:27:36;5.95;;;5.50;;
8610;SDS011;4343;53.648;10.098;2023-09-08T04:30:02;5.85;;;5.35;;
8610;SDS011;4343;53.648;10.098;2023-09-08T04:32:31;6.20;;;5.72;;
8610;SDS011;4343;53.648;10.098;2023-09-08T04:34:57;7.03;;;6.32;;
8610;SDS011;4343;53.648;10.098;2023-09-08T04:37:23;6.15;;;5.75;;
8610;SDS011;4343;53.648;10.098;2023-09-08T04:39:48;6.20;;;5.70;;
8610;SDS011;4343;53.648;10.098;2023-09-08T04:42:14;6.55;;;6.00;;
8610;SDS011;4343;53.648;10.098;2023-09-08T04:44:39;6.07;;;5.63;;
8610;SDS011;4343;53.648;10.098;2023-09-08T04:47:05;6.00;;;5.60;;
8610;SDS011;4343;53.648;10.098;2023-09-08T04:49:30;6.43;;;5.93;;
8610;SDS011;4343;53.648;10.098;2023-09-08T04:51:56;6.25;;;5.85;;
8610;SDS011;4343;53.648;10.098;2023-09-08T04:54:21;6.20;;;5.82;;
8610;SDS011;4343;53.648;10.098;2023-09-08T04:56:49;6.70;;;6.13;;
8610;SDS011;4343;53.648;10.098;2023-09-08T04:59:15;6.38;;;5.97;;
8610;SDS011;4343;53.648;10.098;2023-09-08T05:01:41;6.00;;;5.60;;
8610;SDS011;4343;53.648;10.098;2023-09-08T05:04:08;5.90;;;5.47;;
8610;SDS011;4343;53.648;10.098;2023-09-08T05:06:34;6.40;;;5.90;;
8610;SDS011;4343;53.648;10.098;2023-09-08T05:08:59;6.57;;;6.07;;
8610;SDS011;4343;53.648;10.098;2023-09-08T05:11:25;5.88;;;5.50;;
8610;SDS011;4343;53.648;10.098;2023-09-08T05:13:51;6.05;;;5.65;;
8610;SDS011;4343;53.648;10.098;2023-09-08T05:16:16;6.20;;;5.70;;
8610;SDS011;4343;53.648;10.098;2023-09-08T05:18:43;6.28;;;5.78;;
8610;SDS011;4343;53.648;10.098;2023-09-08T05:21:09;6.18;;;5.68;;
8610;SDS011;4343;53.648;10.098;2023-09-08T05:23:35;6.47;;;6.07;;
8610;SDS011;4343;53.648;10.098;2023-09-08T05:26:00;6.30;;;5.90;;
8610;SDS011;4343;53.648;10.098;2023-09-08T05:28:26;5.88;;;5.47;;
8610;SDS011;4343;53.648;10.098;2023-09-08T05:30:52;6.80;;;6.30;;
8610;SDS011;4343;53.648;10.098;2023-09-08T05:33:20;6.65;;;6.25;;
8610;SDS011;4343;53.648;10.098;2023-09-08T05:35:46;6.68;;;6.20;;
8610;SDS011;4343;53.648;10.098;2023-09-08T05:38:12;6.97;;;6.57;;
8610;SDS011;4343;53.648;10.098;2023-09-08T05:40:38;7.72;;;6.55;;
8610;SDS011;4343;53.648;10.098;2023-09-08T05:43:03;7.18;;;6.47;;
8610;SDS011;4343;53.648;10.098;2023-09-08T05:45:29;6.78;;;6.32;;
8610;SDS011;4343;53.648;10.098;2023-09-08T05:47:56;6.32;;;5.82;;
8610;SDS011;4343;53.648;10.098;2023-09-08T05:50:22;6.55;;;6.10;;
8610;SDS011;4343;53.648;10.098;2023-09-08T05:52:47;6.45;;;6.05;;
8610;SDS011;4343;53.648;10.098;2023-09-08T05:55:13;6.65;;;6.15;;
8610;SDS011;4343;53.648;10.098;2023-09-08T05:57:39;6.80;;;6.30;;
8610;SDS011;4343;53.648;10.098;2023-09-08T06:00:05;6.93;;;6.32;;
8610;SDS011;4343;53.648;10.098;2023-09-08T06:02:32;6.85;;;6.20;;
8610;SDS011;4343;53.648;10.098;2023-09-08T06:04:57;6.85;;;6.35;;
8610;SDS011;4343;53.648;10.098;2023-09-08T06:07:23;6.85;;;6.45;;
8610;SDS011;4343;53.648;10.098;2023-09-08T06:09:48;7.18;;;6.68;;
8610;SDS011;4343;53.648;10.098;2023-09-08T06:12:14;7.05;;;6.45;;
8610;SDS011;4343;53.648;10.098;2023-09-08T06:14:39;6.72;;;6.32;;
8610;SDS011;4343;53.648;10.098;2023-09-08T06:17:05;6.95;;;6.53;;
8610;SDS011;4343;53.648;10.098;2023-09-08T06:19:30;6.72;;;6.13;;
8610;SDS011;4343;53.648;10.098;2023-09-08T06:21:56;7.20;;;6.70;;
8610;SDS011;4343;53.648;10.098;2023-09-08T06:24:21;6.63;;;6.25;;
8610;SDS011;4343;53.648;10.098;2023-09-08T06:26:47;6.57;;;6.07;;
8610;SDS011;4343;53.648;10.098;2023-09-08T06:29:14;6.20;;;5.82;;
8610;SDS011;4343;53.648;10.098;2023-09-08T06:31:40;7.40;;;6.80;;
8610;SDS011;4343;53.648;10.098;2023-09-08T06:34:05;6.35;;;5.95;;
8610;SDS011;4343;53.648;10.098;2023-09-08T06:36:31;6.78;;;6.10;;
8610;SDS011;4343;53.648;10.098;2023-09-08T06:38:56;6.93;;;6.22;;
8610;SDS011;4343;53.648;10.098;2023-09-08T06:41:22;6.53;;;6.03;;
8610;SDS011;4343;53.648;10.098;2023-09-08T06:43:48;6.95;;;6.35;;
8610;SDS011;4343;53.648;10.098;2023-09-08T06:46:26;6.93;;;6.20;;
8610;SDS011;4343;53.648;10.098;2023-09-08T06:48:52;7.03;;;6.20;;
8610;SDS011;4343;53.648;10.098;2023-09-08T06:51:17;8.50;;;6.40;;
8610;SDS011;4343;53.648;10.098;2023-09-08T06:53:43;7.13;;;6.22;;
8610;SDS011;4343;53.648;10.098;2023-09-08T06:56:09;6.57;;;6.07;;
8610;SDS011;4343;53.648;10.098;2023-09-08T06:58:34;5.85;;;5.50;;
8610;SDS011;4343;53.648;10.098;2023-09-08T07:01:00;6.93;;;6.28;;
8610;SDS011;4343;53.648;10.098;2023-09-08T07:03:25;6.68;;;6.25;;
8610;SDS011;4343;53.648;10.098;2023-09-08T07:05:51;7.13;;;6.63;;
8610;SDS011;4343;53.648;10.098;2023-09-08T07:08:17;6.72;;;6.32;;
8610;SDS011;4343;53.648;10.098;2023-09-08T07:10:43;7.13;;;6.47;;
8610;SDS011;4343;53.648;10.098;2023-09-08T07:13:09;6.25;;;5.75;;
8610;SDS011;4343;53.648;10.098;2023-09-08T07:15:34;6.20;;;5.45;;
8610;SDS011;4343;53.648;10.098;2023-09-08T07:18:00;6.07;;;5.57;;
8610;SDS011;4343;53.648;10.098;2023-09-08T07:20:25;5.88;;;5.57;;
8610;SDS011;4343;53.648;10.098;2023-09-08T07:22:51;6.03;;;5.47;;
8610;SDS011;4343;53.648;10.098;2023-09-08T07:25:16;5.78;;;5.47;;
8610;SDS011;4343;53.648;10.098;2023-09-08T07:27:42;5.82;;;5.45;;
8610;SDS011;4343;53.648;10.098;2023-09-08T07:30:08;6.38;;;5.88;;
8610;SDS011;4343;53.648;10.098;2023-09-08T07:32:34;6.55;;;6.03;;
8610;SDS011;4343;53.648;10.098;2023-09-08T07:34:59;6.18;;;5.68;;
8610;SDS011;4343;53.648;10.098;2023-09-08T07:37:24;5.95;;;5.43;;
8610;SDS011;4343;53.648;10.098;2023-09-08T07:39:51;6.25;;;5.30;;
8610;SDS011;4343;53.648;10.098;2023-09-08T07:42:16;6.32;;;5.80;;
8610;SDS011;4343;53.648;10.098;2023-09-08T07:44:42;6.20;;;5.70;;
8610;SDS011;4343;53.648;10.098;2023-09-08T07:47:09;6.47;;;5.90;;
8610;SDS011;4343;53.648;10.098;2023-09-08T07:49:34;5.78;;;5.47;;
8610;SDS011;4343;53.648;10.098;2023-09-08T07:52:00;5.57;;;5.18;;
8610;SDS011;4343;53.648;10.098;2023-09-08T07:54:25;5.65;;;5.25;;
8610;SDS011;4343;53.648;10.098;2023-09-08T07:56:51;6.32;;;5.85;;
8610;SDS011;4343;53.648;10.098;2023-09-08T07:59:16;6.00;;;5.70;;
8610;SDS011;4343;53.648;10.098;2023-09-08T08:01:42;5.15;;;4.75;;
8610;SDS011;4343;53.648;10.098;2023-09-08T08:04:08;5.35;;;5.03;;
8610;SDS011;4343;53.648;10.098;2023-09-08T08:06:33;5.50;;;5.20;;
8610;SDS011;4343;53.648;10.098;2023-09-08T08:08:59;5.88;;;5.20;;
8610;SDS011;4343;53.648;10.098;2023-09-08T08:11:25;5.38;;;5.05;;
8610;SDS011;4343;53.648;10.098;2023-09-08T08:13:50;5.75;;;5.45;;
8610;SDS011;4343;53.648;10.098;2023-09-08T08:16:16;5.38;;;5.07;;
8610;SDS011;4343;53.648;10.098;2023-09-08T08:18:42;5.35;;;4.97;;
8610;SDS011;4343;53.648;10.098;2023-09-08T08:21:07;5.28;;;4.88;;
8610;SDS011;4343;53.648;10.098;2023-09-08T08:23:33;6.10;;;5.53;;
8610;SDS011;4343;53.648;10.098;2023-09-08T08:25:59;5.82;;;5.43;;
8610;SDS011;4343;53.648;10.098;2023-09-08T08:28:24;8.57;;;5.80;;
8610;SDS011;4343;53.648;10.098;2023-09-08T08:30:50;5.78;;;5.38;;
8610;SDS011;4343;53.648;10.098;2023-09-08T08:33:16;5.07;;;4.85;;
8610;SDS011;4343;53.648;10.098;2023-09-08T08:35:47;5.47;;;5.13;;
8610;SDS011;4343;53.648;10.098;2023-09-08T08:38:13;5.13;;;4.72;;
8610;SDS011;4343;53.648;10.098;2023-09-08T08:40:39;5.30;;;4.97;;
8610;SDS011;4343;53.648;10.098;2023-09-08T08:43:04;5.47;;;5.10;;
8610;SDS011;4343;53.648;10.098;2023-09-08T08:45:30;5.35;;;4.95;;
8610;SDS011;4343;53.648;10.098;2023-09-08T08:47:57;5.30;;;4.80;;
8610;SDS011;4343;53.648;10.098;2023-09-08T08:50:23;4.95;;;4.55;;
8610;SDS011;4343;53.648;10.098;2023-09-08T08:52:49;5.18;;;4.88;;
8610;SDS011;4343;53.648;10.098;2023-09-08T08:55:15;6.22;;;5.85;;
8610;SDS011;4343;53.648;10.098;2023-09-08T08:57:41;4.95;;;4.65;;
8610;SDS011;4343;53.648;10.098;2023-09-08T09:00:07;4.57;;;4.32;;
8610;SDS011;4343;53.648;10.098;2023-09-08T09:02:35;5.30;;;5.00;;
8610;SDS011;4343;53.648;10.098;2023-09-08T09:05:03;5.20;;;4.95;;
8610;SDS011;4343;53.648;10.098;2023-09-08T09:07:30;6.03;;;5.63;;
8610;SDS011;4343;53.648;10.098;2023-09-08T09:09:56;5.50;;;5.07;;
8610;SDS011;4343;53.648;10.098;2023-09-08T09:12:22;5.47;;;5.07;;
8610;SDS011;4343;53.648;10.098;2023-09-08T09:14:51;5.47;;;4.97;;
8610;SDS011;4343;53.648;10.098;2023-09-08T09:17:18;4.88;;;4.57;;
8610;SDS011;4343;53.648;10.098;2023-09-08T09:19:43;4.75;;;4.53;;
8610;SDS011;4343;53.648;10.098;2023-09-08T09:22:09;5.80;;;5.30;;
8610;SDS011;4343;53.648;10.098;2023-09-08T09:24:35;6.10;;;5.45;;
8610;SDS011;4343;53.648;10.098;2023-09-08T09:27:04;5.43;;;4.93;;
8610;SDS011;4343;53.648;10.098;2023-09-08T09:29:33;5.80;;;4.90;;
8610;SDS011;4343;53.648;10.098;2023-09-08T09:32:03;6.22;;;5.63;;
8610;SDS011;4343;53.648;10.098;2023-09-08T09:34:34;5.60;;;5.30;;
8610;SDS011;4343;53.648;10.098;2023-09-08T09:37:00;5.15;;;4.88;;
8610;SDS011;4343;53.648;10.098;2023-09-08T09:39:25;5.60;;;5.10;;
8610;SDS011;4343;53.648;10.098;2023-09-08T09:41:55;5.15;;;4.80;;
8610;SDS011;4343;53.648;10.098;2023-09-08T09:44:22;5.65;;;5.00;;
8610;SDS011;4343;53.648;10.098;2023-09-08T09:46:51;4.78;;;4.57;;
8610;SDS011;4343;53.648;10.098;2023-09-08T09:49:17;5.40;;;5.00;;
8610;SDS011;4343;53.648;10.098;2023-09-08T09:51:44;5.25;;;4.85;;
8610;SDS011;4343;53.648;10.098;2023-09-08T09:54:12;5.82;;;5.15;;
8610;SDS011;4343;53.648;10.098;2023-09-08T09:56:38;5.93;;;5.38;;
8610;SDS011;4343;53.648;10.098;2023-09-08T09:59:05;5.70;;;5.20;;
8610;SDS011;4343;53.648;10.098;2023-09-08T10:01:33;5.97;;;5.47;;
8610;SDS011;4343;53.648;10.098;2023-09-08T10:04:00;29.63;;;6.95;;
8610;SDS011;4343;53.648;10.098;2023-09-08T10:06:28;11.45;;;5.53;;
8610;SDS011;4343;53.648;10.098;2023-09-08T10:08:56;6.40;;;4.40;;
8610;SDS011;4343;53.648;10.098;2023-09-08T10:11:24;5.53;;;4.72;;
8610;SDS011;4343;53.648;10.098;2023-09-08T10:13:53;5.32;;;4.85;;
8610;SDS011;4343;53.648;10.098;2023-09-08T10:16:22;5.00;;;4.70;;
8610;SDS011;4343;53.648;10.098;2023-09-08T10:18:52;5.15;;;4.85;;
8610;SDS011;4343;53.648;10.098;2023-09-08T10:21:21;4.88;;;4.57;;
8610;SDS011;4343;53.648;10.098;2023-09-08T10:23:53;5.40;;;5.00;;
8610;SDS011;4343;53.648;10.098;2023-09-08T10:26:26;5.13;;;4.70;;
8610;SDS011;4343;53.648;10.098;2023-09-08T10:28:54;5.13;;;4.72;;
8610;SDS011;4343;53.648;10.098;2023-09-08T10:31:26;4.55;;;4.25;;
8610;SDS011;4343;53.648;10.098;2023-09-08T10:33:55;4.65;;;4.43;;
8610;SDS011;4343;53.648;10.098;2023-09-08T10:36:22;5.22;;;4.55;;
8610;SDS011;4343;53.648;10.098;2023-09-08T10:38:49;5.13;;;4.72;;
8610;SDS011;4343;53.648;10.098;2023-09-08T10:43:45;5.00;;;4.45;;
8610;SDS011;4343;53.648;10.098;2023-09-08T10:46:22;5.53;;;5.22;;
8610;SDS011;4343;53.648;10.098;2023-09-08T10:48:49;5.20;;;4.80;;
8610;SDS011;4343;53.648;10.098;2023-09-08T10:51:14;5.30;;;4.85;;
8610;SDS011;4343;53.648;10.098;2023-09-08T10:53:41;4.93;;;4.68;;
8610;SDS011;4343;53.648;10.098;2023-09-08T10:56:07;7.88;;;4.68;;
8610;SDS011;4343;53.648;10.098;2023-09-08T10:58:33;5.45;;;4.90;;
8610;SDS011;4343;53.648;10.098;2023-09-08T11:01:04;5.15;;;4.85;;
8610;SDS011;4343;53.648;10.098;2023-09-08T11:06:02;4.93;;;4.45;;
8610;SDS011;4343;53.648;10.098;2023-09-08T11:08:28;4.95;;;4.65;;
8610;SDS011;4343;53.648;10.098;2023-09-08T11:10:54;4.75;;;4.55;;
8610;SDS011;4343;53.648;10.098;2023-09-08T11:13:21;4.50;;;4.18;;
8610;SDS011;4343;53.648;10.098;2023-09-08T11:15:46;5.50;;;5.20;;
8610;SDS011;4343;53.648;10.098;2023-09-08T11:18:12;5.00;;;4.70;;
8610;SDS011;4343;53.648;10.098;2023-09-08T11:20:37;4.85;;;4.57;;
8610;SDS011;4343;53.648;10.098;2023-09-08T11:23:03;4.53;;;4.32;;
8610;SDS011;4343;53.648;10.098;2023-09-08T11:25:30;5.18;;;4.88;;
8610;SDS011;4343;53.648;10.098;2023-09-08T11:27:58;5.22;;;4.93;;
8610;SDS011;4343;53.648;10.098;2023-09-08T11:30:24;5.05;;;4.72;;
8610;SDS011;4343;53.648;10.098;2023-09-08T11:32:50;4.70;;;4.30;;
8610;SDS011;4343;53.648;10.098;2023-09-08T11:35:16;4.63;;;3.97;;
8610;SDS011;4343;53.648;10.098;2023-09-08T11:37:45;4.30;;;4.00;;
8610;SDS011;4343;53.648;10.098;2023-09-08T11:40:11;4.70;;;4.40;;
8610;SDS011;4343;53.648;10.098;2023-09-08T11:42:38;4.63;;;4.10;;
8610;SDS011;4343;53.648;10.098;2023-09-08T11:45:14;4.47;;;4.25;;
8610;SDS011;4343;53.648;10.098;2023-09-08T11:47:42;4.80;;;4.50;;
8610;SDS011;4343;53.648;10.098;2023-09-08T11:50:12;5.03;;;4.70;;
8610;SDS011;4343;53.648;10.098;2023-09-08T11:52:44;4.78;;;4.38;;
8610;SDS011;4343;53.648;10.098;2023-09-08T11:55:13;4.10;;;3.78;;
8610;SDS011;4343;53.648;10.098;2023-09-08T11:57:40;4.68;;;4.22;;
8610;SDS011;4343;53.648;10.098;2023-09-08T12:00:06;4.32;;;4.05;;
8610;SDS011;4343;53.648;10.098;2023-09-08T12:02:36;4.10;;;3.80;;
8610;SDS011;4343;53.648;10.098;2023-09-08T12:05:02;4.07;;;3.88;;
8610;SDS011;4343;53.648;10.098;2023-09-08T12:07:28;4.60;;;4.40;;
8610;SDS011;4343;53.648;10.098;2023-09-08T12:09:54;4.43;;;4.13;;
8610;SDS011;4343;53.648;10.098;2023-09-08T12:12:20;4.25;;;3.92;;
8610;SDS011;4343;53.648;10.098;2023-09-08T12:14:46;4.38;;;4.07;;
8610;SDS011;4343;53.648;10.098;2023-09-08T12:17:11;4.82;;;4.53;;
8610;SDS011;4343;53.648;10.098;2023-09-08T12:19:40;4.15;;;3.95;;
8610;SDS011;4343;53.648;10.098;2023-09-08T12:22:06;4.80;;;4.50;;
8610;SDS011;4343;53.648;10.098;2023-09-08T12:27:21;4.03;;;3.72;;
8610;SDS011;4343;53.648;10.098;2023-09-08T12:32:22;4.63;;;4.43;;
8610;SDS011;4343;53.648;10.098;2023-09-08T12:34:48;4.20;;;3.90;;
8610;SDS011;4343;53.648;10.098;2023-09-08T12:37:14;4.90;;;4.70;;
8610;SDS011;4343;53.648;10.098;2023-09-08T12:39:39;4.20;;;4.00;;
8610;SDS011;4343;53.648;10.098;2023-09-08T12:42:05;4.22;;;4.03;;
8610;SDS011;4343;53.648;10.098;2023-09-08T12:44:30;5.13;;;4.72;;
8610;SDS011;4343;53.648;10.098;2023-09-08T12:46:56;4.55;;;4.25;;
8610;SDS011;4343;53.648;10.098;2023-09-08T12:49:21;4.93;;;4.63;;
8610;SDS011;4343;53.648;10.098;2023-09-08T12:51:47;5.20;;;4.80;;
8610;SDS011;4343;53.648;10.098;2023-09-08T12:54:13;7.07;;;4.45;;
8610;SDS011;4343;53.648;10.098;2023-09-08T12:56:38;4.80;;;4.45;;
8610;SDS011;4343;53.648;10.098;2023-09-08T12:59:04;4.88;;;4.68;;
8610;SDS011;4343;53.648;10.098;2023-09-08T13:01:29;4.90;;;4.20;;
8610;SDS011;4343;53.648;10.098;2023-09-08T13:03:55;4.72;;;4.53;;
8610;SDS011;4343;53.648;10.098;2023-09-08T13:06:20;4.50;;;4.30;;
8610;SDS011;4343;53.648;10.098;2023-09-08T13:08:45;4.97;;;4.57;;
8610;SDS011;4343;53.648;10.098;2023-09-08T13:11:11;4.53;;;4.32;;
8610;SDS011;4343;53.648;10.098;2023-09-08T13:13:36;4.80;;;4.50;;
8610;SDS011;4343;53.648;10.098;2023-09-08T13:16:02;7.35;;;4.80;;
8610;SDS011;4343;53.648;10.098;2023-09-08T13:18:28;4.63;;;4.35;;
8610;SDS011;4343;53.648;10.098;2023-09-08T13:20:55;4.65;;;4.32;;
8610;SDS011;4343;53.648;10.098;2023-09-08T13:23:21;4.72;;;4.53;;
8610;SDS011;4343;53.648;10.098;2023-09-08T13:25:46;4.45;;;4.15;;
8610;SDS011;4343;53.648;10.098;2023-09-08T13:28:12;5.43;;;5.03;;
8610;SDS011;4343;53.648;10.098;2023-09-08T13:30:37;4.00;;;3.90;;
8610;SDS011;4343;53.648;10.098;2023-09-08T13:33:03;4.72;;;4.43;;
8610;SDS011;4343;53.648;10.098;2023-09-08T13:35:29;4.85;;;4.45;;
8610;SDS011;4343;53.648;10.098;2023-09-08T13:37:54;4.53;;;4.32;;
8610;SDS011;4343;53.648;10.098;2023-09-08T13:40:20;5.75;;;4.90;;
8610;SDS011;4343;53.648;10.098;2023-09-08T13:42:46;20.10;;;4.70;;
8610;SDS011;4343;53.648;10.098;2023-09-08T13:45:12;4.32;;;3.83;;
8610;SDS011;4343;53.648;10.098;2023-09-08T13:47:37;4.18;;;3.97;;
8610;SDS011;4343;53.648;10.098;2023-09-08T13:50:03;4.97;;;4.20;;
8610;SDS011;4343;53.648;10.098;2023-09-08T13:52:29;4.65;;;4.35;;
8610;SDS011;4343;53.648;10.098;2023-09-08T13:54:55;5.55;;;4.45;;
8610;SDS011;4343;53.648;10.098;2023-09-08T13:57:20;4.30;;;4.00;;
8610;SDS011;4343;53.648;10.098;2023-09-08T13:59:46;4.22;;;3.92;;
8610;SDS011;4343;53.648;10.098;2023-09-08T14:02:11;4.25;;;4.00;;
8610;SDS011;4343;53.648;10.098;2023-09-08T14:04:37;4.60;;;4.30;;
8610;SDS011;4343;53.648;10.098;2023-09-08T14:07:04;5.07;;;4.15;;
8610;SDS011;4343;53.648;10.098;2023-09-08T14:09:30;4.20;;;3.90;;
8610;SDS011;4343;53.648;10.098;2023-09-08T14:11:56;4.88;;;4.05;;
8610;SDS011;4343;53.648;10.098;2023-09-08T14:14:21;4.47;;;4.28;;
8610;SDS011;4343;53.648;10.098;2023-09-08T14:16:49;4.40;;;4.10;;
8610;SDS011;4343;53.648;10.098;2023-09-08T14:19:14;5.25;;;4.20;;
8610;SDS011;4343;53.648;10.098;2023-09-08T14:21:40;4.70;;;4.35;;
8610;SDS011;4343;53.648;10.098;2023-09-08T14:24:06;4.40;;;4.10;;
8610;SDS011;4343;53.648;10.098;2023-09-08T14:26:31;4.32;;;4.13;;
8610;SDS011;4343;53.648;10.098;2023-09-08T14:28:57;4.20;;;3.85;;
8610;SDS011;4343;53.648;10.098;2023-09-08T14:31:22;4.25;;;4.00;;
8610;SDS011;4343;53.648;10.098;2023-09-08T14:33:48;4.32;;;4.10;;
8610;SDS011;4343;53.648;10.098;2023-09-08T14:36:17;10.90;;;4.32;;
8610;SDS011;4343;53.648;10.098;2023-09-08T14:38:43;4.63;;;4.22;;
8610;SDS011;4343;53.648;10.098;2023-09-08T14:41:09;4.47;;;4.15;;
8610;SDS011;4343;53.648;10.098;2023-09-08T14:43:35;4.95;;;4.20;;
8610;SDS011;4343;53.648;10.098;2023-09-08T14:46:00;6.13;;;4.38;;
8610;SDS011;4343;53.648;10.098;2023-09-08T14:48:27;4.75;;;4.30;;
8610;SDS011;4343;53.648;10.098;2023-09-08T14:50:54;6.53;;;4.20;;
8610;SDS011;4343;53.648;10.098;2023-09-08T14:53:21;4.50;;;4.13;;
8610;SDS011;4343;53.648;10.098;2023-09-08T14:55:47;4.68;;;4.28;;
8610;SDS011;4343;53.648;10.098;2023-09-08T14:58:13;3.95;;;3.75;;
8610;SDS011;4343;53.648;10.098;2023-09-08T15:00:40;4.47;;;4.15;;
8610;SDS011;4343;53.648;10.098;2023-09-08T15:03:06;4.18;;;3.97;;
8610;SDS011;4343;53.648;10.098;2023-09-08T15:05:33;4.72;;;4.30;;